Time;durP1;ratioP1;P1;durP2;ratioP2;P2;SDS_P1;SDS_P2;PMS_P1;PMS_P2;Temp;Humidity;BMP_temperature;BMP_pressure;BME280_temperature;BME280_humidity;BME280_pressure;Samples;Min_cycle;Max_cycle;Signal;HPM_P1;HPM_P2
2021/10/22 00:00:18;;;;;;;4.85;0.95;;;7.80;81.00;;;;;;5110748;28;20043;-83
2021/10/22 00:02:46;;;;;;;7.75;1.30;;;7.80;80.70;;;;;;5106312;28;20039;-83
2021/10/22 00:05:14;;;;;;;6.55;1.20;;;7.80;80.60;;;;;;5103927;28;20054;-84
2021/10/22 00:07:41;;;;;;;3.13;0.95;;;7.80;80.40;;;;;;5104324;28;20055;-83
2021/10/22 00:10:10;;;;;;;5.97;1.20;;;7.90;80.40;;;;;;5105226;28;20517;-84
2021/10/22 00:12:38;;;;;;;7.82;1.40;;;7.90;79.90;;;;;;5103461;28;20047;-84
2021/10/22 00:15:08;;;;;;;4.82;1.00;;;8.00;79.70;;;;;;5083880;28;20525;-83
2021/10/22 00:17:37;;;;;;;6.40;1.27;;;8.00;79.40;;;;;;5103895;28;20043;-83
2021/10/22 00:20:08;;;;;;;5.53;1.08;;;8.00;79.40;;;;;;5110390;28;20043;-83
2021/10/22 00:22:37;;;;;;;7.68;0.98;;;8.00;79.20;;;;;;5112294;28;20040;-84
2021/10/22 00:25:09;;;;;;;7.55;0.60;;;8.10;78.90;;;;;;5112950;28;20051;-85
2021/10/22 00:27:37;;;;;;;4.82;1.02;;;8.10;78.60;;;;;;5106466;28;20044;-85
2021/10/22 00:30:06;;;;;;;8.35;1.30;;;8.10;78.50;;;;;;5105579;28;20492;-84
2021/10/22 00:32:34;;;;;;;5.97;1.58;;;8.10;78.50;;;;;;5108850;28;20047;-84
2021/10/22 00:35:03;;;;;;;5.32;1.13;;;8.10;78.10;;;;;;5113114;28;20432;-84
2021/10/22 00:37:30;;;;;;;9.45;1.38;;;8.10;78.10;;;;;;5106541;28;20044;-84
2021/10/22 00:39:58;;;;;;;10.25;1.33;;;8.10;78.00;;;;;;5114249;28;20486;-83
2021/10/22 00:42:26;;;;;;;6.13;1.10;;;8.20;77.70;;;;;;5113573;28;20043;-83
2021/10/22 00:44:54;;;;;;;6.30;0.75;;;8.10;77.80;;;;;;5108602;28;20044;-83
2021/10/22 00:47:22;;;;;;;10.15;1.13;;;8.20;77.50;;;;;;5093062;28;20071;-83
2021/10/22 00:49:50;;;;;;;6.18;0.82;;;8.20;77.10;;;;;;5107112;28;20047;-82
2021/10/22 00:52:24;;;;;;;8.15;1.02;;;8.20;76.90;;;;;;5119207;28;20048;-83
2021/10/22 00:54:54;;;;;;;8.48;1.10;;;8.20;76.70;;;;;;5106103;28;20540;-82
2021/10/22 00:57:22;;;;;;;7.20;1.00;;;8.20;76.50;;;;;;5112941;28;20036;-83
2021/10/22 00:59:49;;;;;;;7.65;0.77;;;8.30;76.00;;;;;;5108219;28;20036;-82
2021/10/22 01:02:19;;;;;;;2.72;0.70;;;8.30;76.00;;;;;;5102702;28;20044;-82
2021/10/22 01:04:49;;;;;;;8.38;1.27;;;8.30;75.50;;;;;;5107893;28;20379;-82
2021/10/22 01:07:17;;;;;;;6.35;1.00;;;8.20;75.50;;;;;;5108373;28;20051;-82
2021/10/22 01:09:45;;;;;;;5.07;1.02;;;8.30;75.50;;;;;;5094854;28;20051;-83
2021/10/22 01:12:13;;;;;;;4.60;1.13;;;8.20;75.30;;;;;;5102469;28;20036;-83
2021/10/22 01:14:41;;;;;;;4.97;1.15;;;8.20;74.70;;;;;;5105878;28;20052;-83
2021/10/22 01:17:31;;;;;;;6.30;1.27;;;8.20;74.60;;;;;;5106958;28;20051;-83
2021/10/22 01:19:59;;;;;;;3.95;1.10;;;8.10;74.40;;;;;;5110456;28;20497;-84
2021/10/22 01:22:27;;;;;;;7.15;1.38;;;8.10;74.00;;;;;;5112049;28;20047;-83
2021/10/22 01:24:54;;;;;;;6.20;1.17;;;8.10;73.90;;;;;;5111894;28;20044;-84
2021/10/22 01:27:22;;;;;;;4.25;0.88;;;8.10;74.10;;;;;;5111717;28;20063;-83
2021/10/22 01:29:50;;;;;;;5.57;0.93;;;8.10;74.30;;;;;;5091106;28;20047;-83
2021/10/22 01:32:18;;;;;;;6.50;0.88;;;8.10;73.90;;;;;;5098591;28;20040;-83
2021/10/22 01:34:46;;;;;;;8.73;0.77;;;8.10;73.90;;;;;;5097435;28;20040;-83
2021/10/22 01:37:15;;;;;;;4.57;1.02;;;8.20;74.00;;;;;;5110575;28;20051;-84
2021/10/22 01:39:43;;;;;;;6.97;1.00;;;8.20;73.90;;;;;;5082129;28;20533;-83
2021/10/22 01:42:11;;;;;;;13.55;1.05;;;8.20;73.60;;;;;;5091963;28;20048;-82
2021/10/22 01:44:39;;;;;;;6.88;1.05;;;8.20;73.70;;;;;;5107138;28;20040;-84
2021/10/22 01:47:07;;;;;;;6.68;1.40;;;8.20;73.40;;;;;;5092200;28;20051;-82
2021/10/22 01:49:35;;;;;;;5.25;0.75;;;8.20;73.50;;;;;;5112021;28;20050;-84
2021/10/22 01:52:03;;;;;;;16.90;0.80;;;8.20;73.60;;;;;;5102142;28;20506;-84
2021/10/22 01:54:31;;;;;;;4.65;0.82;;;8.20;73.20;;;;;;5106012;28;20512;-83
2021/10/22 01:56:59;;;;;;;4.50;0.95;;;8.20;73.40;;;;;;5111802;28;20254;-82
2021/10/22 01:59:27;;;;;;;2.53;0.70;;;8.20;73.40;;;;;;5110827;28;20474;-83
2021/10/22 02:01:54;;;;;;;5.00;0.55;;;8.20;73.40;;;;;;5112219;28;20051;-83
2021/10/22 02:04:22;;;;;;;6.82;0.70;;;8.10;73.60;;;;;;5110925;28;20047;-83
2021/10/22 02:06:49;;;;;;;3.97;0.90;;;8.10;73.80;;;;;;5112113;28;20054;-83
2021/10/22 02:09:18;;;;;;;3.80;0.80;;;8.10;74.00;;;;;;5110446;28;20056;-83
2021/10/22 02:11:47;;;;;;;7.88;1.15;;;8.00;74.30;;;;;;5113830;28;20046;-82
2021/10/22 02:14:15;;;;;;;3.90;0.95;;;8.00;74.50;;;;;;5114302;28;20051;-82
2021/10/22 02:16:44;;;;;;;4.93;0.68;;;8.00;74.60;;;;;;5115493;28;20055;-83
2021/10/22 02:19:12;;;;;;;2.42;0.65;;;8.00;74.80;;;;;;5115814;28;20402;-82
2021/10/22 02:21:41;;;;;;;5.65;1.90;;;8.00;74.90;;;;;;5115730;28;20496;-83
2021/10/22 02:24:09;;;;;;;5.88;1.48;;;8.00;75.10;;;;;;5115785;28;20046;-82
2021/10/22 02:26:38;;;;;;;8.80;1.05;;;7.90;75.40;;;;;;5115960;28;20040;-83
2021/10/22 02:29:05;;;;;;;5.90;1.70;;;7.90;75.60;;;;;;5117310;28;20039;-83
2021/10/22 02:31:33;;;;;;;6.32;0.90;;;7.80;75.80;;;;;;5118762;28;20054;-82
2021/10/22 02:34:01;;;;;;;5.47;1.00;;;7.80;75.90;;;;;;5115118;28;20043;-82
2021/10/22 02:36:28;;;;;;;6.10;1.00;;;7.80;76.00;;;;;;5115254;28;20051;-82
2021/10/22 02:38:56;;;;;;;6.43;1.20;;;7.80;75.90;;;;;;5115331;28;20061;-82
2021/10/22 02:41:24;;;;;;;6.80;1.30;;;7.80;75.70;;;;;;5114970;28;20058;-82
2021/10/22 02:43:51;;;;;;;6.13;1.15;;;7.80;75.40;;;;;;5113747;28;20069;-82
2021/10/22 02:46:19;;;;;;;7.63;0.60;;;7.80;75.50;;;;;;5114621;28;20050;-83
2021/10/22 02:48:46;;;;;;;6.50;0.90;;;7.90;75.10;;;;;;5114676;28;20402;-83
2021/10/22 02:51:14;;;;;;;7.40;0.95;;;7.80;75.00;;;;;;5114895;28;20050;-83
2021/10/22 02:53:42;;;;;;;8.10;1.27;;;7.80;75.20;;;;;;5114653;28;20043;-83
2021/10/22 02:56:09;;;;;;;5.30;0.80;;;7.80;75.20;;;;;;5114165;28;20056;-83
2021/10/22 02:58:37;;;;;;;4.07;1.13;;;7.80;75.20;;;;;;5114429;28;20036;-83
2021/10/22 03:01:05;;;;;;;8.80;1.35;;;7.90;75.20;;;;;;5110103;28;20047;-83
2021/10/22 03:03:34;;;;;;;6.40;1.00;;;7.90;75.20;;;;;;5106642;28;20056;-83
2021/10/22 03:06:02;;;;;;;5.47;0.93;;;7.90;75.00;;;;;;5113693;28;20058;-83
2021/10/22 03:08:29;;;;;;;8.13;1.45;;;8.00;74.90;;;;;;5114333;28;20036;-83
2021/10/22 03:10:57;;;;;;;7.07;0.82;;;8.00;74.80;;;;;;5114373;28;20054;-83
2021/10/22 03:13:25;;;;;;;7.57;1.50;;;8.00;74.80;;;;;;5114291;28;20517;-84
2021/10/22 03:15:53;;;;;;;4.72;1.05;;;8.10;74.60;;;;;;5114816;27;20506;-83
2021/10/22 03:18:21;;;;;;;7.47;0.85;;;8.10;74.70;;;;;;5113240;28;20050;-84
2021/10/22 03:20:49;;;;;;;3.95;0.80;;;8.20;74.70;;;;;;5114110;28;20063;-83
2021/10/22 03:23:16;;;;;;;8.73;0.90;;;8.20;74.70;;;;;;5114137;28;20401;-83
2021/10/22 03:25:44;;;;;;;6.82;0.95;;;8.30;74.60;;;;;;5112867;28;20055;-83
2021/10/22 03:28:11;;;;;;;6.20;1.10;;;8.30;74.50;;;;;;5111829;28;20047;-83
2021/10/22 03:30:40;;;;;;;2.28;0.70;;;8.30;74.40;;;;;;5112589;28;20051;-84
2021/10/22 03:33:10;;;;;;;6.53;1.02;;;8.30;74.30;;;;;;5112686;28;20040;-84
2021/10/22 03:35:38;;;;;;;4.30;0.98;;;8.40;74.40;;;;;;5112522;28;20506;-84
2021/10/22 03:38:05;;;;;;;5.18;1.08;;;8.40;74.10;;;;;;5113488;28;20048;-84
2021/10/22 03:40:34;;;;;;;3.92;0.60;;;8.40;74.20;;;;;;5108982;28;20039;-84
2021/10/22 03:43:01;;;;;;;8.70;0.90;;;8.50;74.10;;;;;;5107028;28;20059;-83
2021/10/22 03:45:29;;;;;;;2.47;0.60;;;8.50;74.00;;;;;;5113894;28;20032;-84
2021/10/22 03:47:57;;;;;;;3.10;0.25;;;8.60;74.60;;;;;;5113709;28;20055;-84
2021/10/22 03:50:25;;;;;;;7.65;0.80;;;8.60;74.90;;;;;;5113740;28;20050;-83
2021/10/22 03:52:53;;;;;;;6.88;0.95;;;8.60;75.10;;;;;;5113348;28;20062;-83
2021/10/22 03:55:21;;;;;;;6.30;0.47;;;8.70;75.50;;;;;;5112868;28;20066;-84
2021/10/22 03:57:49;;;;;;;4.70;0.80;;;8.70;75.70;;;;;;5112108;28;20047;-84
2021/10/22 04:00:17;;;;;;;3.08;0.68;;;8.70;75.80;;;;;;5112821;28;20048;-83
2021/10/22 04:02:45;;;;;;;9.75;0.77;;;8.60;76.00;;;;;;5112901;28;20368;-83
2021/10/22 04:05:13;;;;;;;2.80;0.60;;;8.70;76.10;;;;;;5112656;27;20052;-82
2021/10/22 04:07:41;;;;;;;4.85;0.80;;;8.70;76.20;;;;;;5112920;28;20478;-82
2021/10/22 04:10:09;;;;;;;4.78;1.17;;;8.70;76.30;;;;;;5093404;28;20056;-82
2021/10/22 04:12:38;;;;;;;3.63;0.47;;;8.60;76.40;;;;;;5113181;28;20048;-81
2021/10/22 04:15:06;;;;;;;4.43;1.15;;;8.60;76.90;;;;;;5112732;28;20051;-81
2021/10/22 04:17:38;;;;;;;5.28;1.02;;;8.60;76.90;;;;;;5112824;28;20043;-81
2021/10/22 04:20:07;;;;;;;4.22;0.73;;;8.60;76.70;;;;;;5111789;28;20543;-81
2021/10/22 04:22:35;;;;;;;4.75;0.65;;;8.60;76.80;;;;;;5112388;28;20051;-81
2021/10/22 04:25:04;;;;;;;3.20;0.73;;;8.60;76.80;;;;;;5111314;28;20043;-81
2021/10/22 04:27:35;;;;;;;3.97;0.60;;;8.50;77.00;;;;;;5112538;28;20056;-81
2021/10/22 04:30:06;;;;;;;5.22;1.00;;;8.50;77.00;;;;;;5112447;28;20043;-81
2021/10/22 04:32:34;;;;;;;7.72;1.02;;;8.50;77.10;;;;;;5115464;28;20378;-81
2021/10/22 04:35:02;;;;;;;2.50;0.70;;;8.50;77.30;;;;;;5110587;28;20035;-81
2021/10/22 04:37:33;;;;;;;6.72;0.73;;;8.50;77.30;;;;;;5112350;28;20047;-82
2021/10/22 04:42:50;;;;;;;11.15;0.80;;;8.50;77.80;;;;;;5097883;28;20039;-81
2021/10/22 04:45:19;;;;;;;1.85;0.40;;;8.50;77.90;;;;;;5110894;28;20054;-81
2021/10/22 04:47:47;;;;;;;4.72;1.25;;;8.50;78.20;;;;;;5107879;28;20044;-82
2021/10/22 04:50:16;;;;;;;3.55;0.93;;;8.50;78.30;;;;;;5110590;28;20062;-82
2021/10/22 04:52:44;;;;;;;2.10;0.60;;;8.50;78.50;;;;;;5112710;28;20051;-83
2021/10/22 04:55:11;;;;;;;3.28;0.90;;;8.60;78.70;;;;;;5111787;28;20043;-82
2021/10/22 04:57:39;;;;;;;7.13;0.90;;;8.60;78.70;;;;;;5111398;28;20062;-82
2021/10/22 05:00:08;;;;;;;4.13;0.63;;;8.60;78.90;;;;;;5093504;28;20048;-81
2021/10/22 05:02:37;;;;;;;5.35;0.60;;;8.60;79.10;;;;;;5111979;28;20383;-81
2021/10/22 05:05:09;;;;;;;8.02;0.82;;;8.60;79.00;;;;;;5111594;28;20043;-81
2021/10/22 05:07:36;;;;;;;1.23;0.38;;;8.60;79.20;;;;;;5094374;28;20044;-81
2021/10/22 05:10:05;;;;;;;8.73;1.05;;;8.60;79.10;;;;;;5111321;28;20039;-81
2021/10/22 05:12:33;;;;;;;5.78;0.50;;;8.60;79.00;;;;;;5108198;28;20047;-81
2021/10/22 05:15:01;;;;;;;4.93;0.80;;;8.60;78.70;;;;;;5110830;28;20059;-81
2021/10/22 05:17:29;;;;;;;3.17;0.73;;;8.70;78.10;;;;;;5110502;28;20035;-81
2021/10/22 05:19:57;;;;;;;4.00;0.63;;;8.70;77.90;;;;;;5110442;28;20512;-80
2021/10/22 05:22:25;;;;;;;5.28;0.70;;;8.80;77.50;;;;;;5111105;28;20036;-80
2021/10/22 05:24:53;;;;;;;4.70;0.70;;;8.80;77.00;;;;;;5111906;28;20043;-80
2021/10/22 05:27:20;;;;;;;3.63;0.70;;;8.80;77.00;;;;;;5111218;28;20047;-80
2021/10/22 05:29:48;;;;;;;5.35;1.08;;;8.90;77.20;;;;;;5111926;28;20044;-80
2021/10/22 05:32:15;;;;;;;5.68;1.10;;;8.90;77.40;;;;;;5112015;28;20044;-82
2021/10/22 05:34:43;;;;;;;4.40;0.60;;;8.90;77.50;;;;;;5110515;28;20042;-81
2021/10/22 05:37:11;;;;;;;5.60;0.70;;;8.90;77.70;;;;;;5111588;28;20052;-81
2021/10/22 05:39:39;;;;;;;6.47;1.00;;;9.00;77.90;;;;;;5100930;28;20054;-81
2021/10/22 05:42:07;;;;;;;2.50;0.60;;;9.00;78.00;;;;;;5097462;28;20067;-82
2021/10/22 05:44:35;;;;;;;4.95;0.88;;;9.00;78.30;;;;;;5103993;28;20055;-82
2021/10/22 05:47:05;;;;;;;4.68;0.82;;;8.90;78.60;;;;;;5113589;28;20047;-82
2021/10/22 05:49:35;;;;;;;6.00;0.80;;;8.90;79.50;;;;;;5079991;28;20040;-82
2021/10/22 05:52:03;;;;;;;3.38;0.30;;;8.80;80.20;;;;;;5114956;28;20054;-82
2021/10/22 05:54:31;;;;;;;2.95;0.32;;;8.80;80.40;;;;;;5114402;28;20482;-82
2021/10/22 05:56:58;;;;;;;5.20;0.85;;;8.70;80.50;;;;;;5113938;28;20513;-82
2021/10/22 05:59:26;;;;;;;5.43;0.82;;;8.60;80.80;;;;;;5115419;28;20393;-82
2021/10/22 06:01:54;;;;;;;3.20;0.77;;;8.50;81.60;;;;;;5114292;28;20055;-82
2021/10/22 06:04:23;;;;;;;6.38;0.70;;;8.50;81.90;;;;;;5115251;28;20031;-82
2021/10/22 06:06:50;;;;;;;3.42;0.85;;;8.50;82.30;;;;;;5116162;28;20450;-83
2021/10/22 06:09:18;;;;;;;4.22;0.73;;;8.50;82.70;;;;;;5113547;28;20394;-82
2021/10/22 06:11:49;;;;;;;8.48;0.80;;;8.40;83.10;;;;;;5115017;28;20056;-82
2021/10/22 06:14:17;;;;;;;7.78;1.02;;;8.40;83.50;;;;;;5115099;28;20051;-82
2021/10/22 06:16:45;;;;;;;2.55;0.68;;;8.50;83.70;;;;;;5097226;28;20478;-83
2021/10/22 06:19:22;;;;;;;6.53;1.00;;;8.40;83.90;;;;;;5114284;28;20055;-83
2021/10/22 06:21:55;;;;;;;2.55;0.40;;;8.30;84.00;;;;;;5114361;28;20043;-82
2021/10/22 06:24:22;;;;;;;4.22;0.70;;;8.30;84.00;;;;;;5113048;28;20036;-83
2021/10/22 06:26:50;;;;;;;6.45;0.80;;;8.30;83.80;;;;;;5114587;28;20498;-83
2021/10/22 06:29:18;;;;;;;3.92;0.90;;;8.30;84.00;;;;;;5113129;28;20051;-83
2021/10/22 06:31:47;;;;;;;5.32;0.70;;;8.30;84.10;;;;;;5111039;28;20379;-83
2021/10/22 06:34:15;;;;;;;10.07;1.27;;;8.30;84.20;;;;;;5106235;28;20058;-82
2021/10/22 06:36:42;;;;;;;8.10;1.40;;;8.30;84.10;;;;;;5111730;28;20039;-82
2021/10/22 06:39:10;;;;;;;7.28;1.42;;;8.30;84.00;;;;;;5112774;28;20044;-83
2021/10/22 06:41:38;;;;;;;5.10;1.10;;;8.40;84.00;;;;;;5114056;28;20050;-83
2021/10/22 06:44:06;;;;;;;5.68;1.17;;;8.30;83.80;;;;;;5111845;28;20043;-84
2021/10/22 06:46:34;;;;;;;5.80;1.02;;;8.40;83.80;;;;;;5113281;28;20039;-82
2021/10/22 06:49:01;;;;;;;3.10;0.73;;;8.50;83.50;;;;;;5113109;28;20051;-82
2021/10/22 06:51:29;;;;;;;4.88;1.00;;;8.50;83.40;;;;;;5112283;28;20055;-83
2021/10/22 06:53:57;;;;;;;4.90;0.77;;;8.50;83.30;;;;;;5109874;28;20048;-82
2021/10/22 06:56:24;;;;;;;6.40;0.88;;;8.60;83.40;;;;;;5111752;28;20035;-82
2021/10/22 06:58:52;;;;;;;4.50;0.73;;;8.60;83.20;;;;;;5111996;28;20490;-83
2021/10/22 07:01:19;;;;;;;4.18;0.80;;;8.60;83.10;;;;;;5111848;28;20409;-83
2021/10/22 07:03:48;;;;;;;5.35;0.70;;;8.70;82.90;;;;;;5113221;28;20054;-82
2021/10/22 07:09:01;;;;;;;4.10;0.95;;;8.80;82.40;;;;;;5109212;28;20051;-83
2021/10/22 07:11:31;;;;;;;5.82;1.02;;;8.80;82.20;;;;;;5089378;28;20047;-83
2021/10/22 07:14:01;;;;;;;15.45;1.30;;;8.80;82.20;;;;;;5107280;28;20055;-83
2021/10/22 07:16:30;;;;;;;9.73;1.00;;;8.90;82.20;;;;;;5107831;27;20052;-83
2021/10/22 07:18:58;;;;;;;6.93;1.10;;;8.90;82.00;;;;;;5109606;28;20054;-84
2021/10/22 07:21:26;;;;;;;8.65;1.20;;;8.90;81.80;;;;;;5107458;28;20047;-84
2021/10/22 07:23:57;;;;;;;7.45;0.90;;;9.00;81.80;;;;;;5112208;28;20039;-84
2021/10/22 07:26:24;;;;;;;7.32;1.30;;;9.00;82.00;;;;;;5108973;28;20056;-84
2021/10/22 07:28:52;;;;;;;4.40;0.80;;;9.00;81.70;;;;;;5111499;28;20063;-83
2021/10/22 07:31:20;;;;;;;5.00;0.63;;;9.00;81.60;;;;;;5107388;28;20410;-83
2021/10/22 07:33:48;;;;;;;9.07;1.10;;;9.00;81.50;;;;;;5108929;28;20158;-84
2021/10/22 07:36:16;;;;;;;5.43;0.80;;;9.10;81.50;;;;;;5109355;28;20044;-83
2021/10/22 07:38:44;;;;;;;6.63;0.63;;;9.10;80.80;;;;;;5111473;28;20679;-83
2021/10/22 07:41:14;;;;;;;4.40;1.40;;;9.10;81.00;;;;;;5107368;28;20043;-83
2021/10/22 07:43:42;;;;;;;3.67;0.95;;;9.20;80.80;;;;;;5111539;28;20386;-83
2021/10/22 07:46:10;;;;;;;2.17;0.47;;;9.20;80.90;;;;;;5110241;28;20055;-83
2021/10/22 07:48:40;;;;;;;5.68;1.13;;;9.20;81.20;;;;;;5091567;28;20052;-82
2021/10/22 07:51:08;;;;;;;7.88;0.98;;;9.20;81.30;;;;;;5092695;28;20367;-83
2021/10/22 07:53:37;;;;;;;1.83;0.63;;;9.20;81.80;;;;;;5089540;28;20475;-83
2021/10/22 07:56:05;;;;;;;4.35;1.00;;;9.20;82.50;;;;;;5111216;28;20040;-84
2021/10/22 07:58:33;;;;;;;4.65;0.80;;;9.20;82.70;;;;;;5110404;28;20051;-83
2021/10/22 08:01:02;;;;;;;8.00;1.10;;;9.10;82.90;;;;;;5110192;28;20047;-83
2021/10/22 08:03:30;;;;;;;5.47;0.80;;;9.20;82.90;;;;;;5109956;28;20129;-85
2021/10/22 08:05:58;;;;;;;7.50;1.10;;;9.10;82.90;;;;;;5112226;28;20786;-84
2021/10/22 08:08:26;;;;;;;6.03;0.88;;;9.20;82.80;;;;;;5108571;28;20051;-85
2021/10/22 08:10:55;;;;;;;6.70;1.15;;;9.30;82.90;;;;;;5111924;28;20035;-85
2021/10/22 08:13:22;;;;;;;5.72;1.20;;;9.30;82.90;;;;;;5111179;28;20062;-85
2021/10/22 08:15:50;;;;;;;4.22;0.80;;;9.30;83.10;;;;;;5110293;28;20059;-85
2021/10/22 08:18:18;;;;;;;8.85;0.90;;;9.30;83.10;;;;;;5110541;28;20051;-85
2021/10/22 08:21:03;;;;;;;4.80;0.73;;;9.30;83.10;;;;;;5111527;28;20277;-85
2021/10/22 08:23:30;;;;;;;7.68;0.88;;;9.40;82.90;;;;;;5109719;28;20078;-85
2021/10/22 08:25:58;;;;;;;7.68;0.80;;;9.40;82.80;;;;;;5111060;28;20052;-85
2021/10/22 08:28:29;;;;;;;3.10;0.50;;;9.50;82.50;;;;;;5108426;28;20490;-84
2021/10/22 08:30:57;;;;;;;4.32;0.95;;;9.50;82.30;;;;;;5108818;28;20486;-85
2021/10/22 08:33:26;;;;;;;3.33;0.70;;;9.60;82.10;;;;;;5110402;28;20035;-84
2021/10/22 08:35:55;;;;;;;6.28;0.60;;;9.60;82.20;;;;;;5111165;28;20043;-79
2021/10/22 08:38:24;;;;;;;4.65;0.98;;;9.70;81.80;;;;;;5106588;28;20474;-85
2021/10/22 08:40:57;;;;;;;1.85;0.70;;;9.70;81.60;;;;;;5109562;28;20047;-82
2021/10/22 08:43:27;;;;;;;4.90;0.60;;;9.70;81.40;;;;;;5089069;28;20043;-85
2021/10/22 08:45:58;;;;;;;2.70;0.90;;;9.80;81.10;;;;;;5071986;28;20040;-82
2021/10/22 08:48:28;;;;;;;3.42;0.65;;;9.90;80.80;;;;;;5109275;28;20048;-85
2021/10/22 08:50:56;;;;;;;2.90;0.35;;;10.00;80.80;;;;;;5110329;28;20046;-83
2021/10/22 08:53:26;;;;;;;8.20;0.70;;;10.10;80.50;;;;;;5109958;28;20043;-83
2021/10/22 08:55:57;;;;;;;2.90;0.75;;;10.10;80.50;;;;;;5111461;28;20044;-84
2021/10/22 08:58:26;;;;;;;6.57;0.80;;;10.10;80.80;;;;;;5109501;28;20489;-84
2021/10/22 09:00:54;;;;;;;6.82;1.10;;;10.20;80.50;;;;;;5092053;28;20044;-85
2021/10/22 09:03:22;;;;;;;4.95;0.88;;;10.20;80.50;;;;;;5110210;28;20471;-82
2021/10/22 09:06:04;;;;;;;6.82;0.88;;;10.30;80.40;;;;;;5110868;28;20044;-83
2021/10/22 09:08:35;;;;;;;4.63;0.60;;;10.30;80.20;;;;;;5109103;28;20402;-83
2021/10/22 09:11:23;;;;;;;4.35;0.70;;;10.30;79.80;;;;;;5089013;28;20122;-84
2021/10/22 09:14:14;;;;;;;6.30;0.60;;;10.30;80.50;;;;;;5110289;28;20047;-82
2021/10/22 09:16:49;;;;;;;7.22;0.90;;;10.30;80.90;;;;;;5099372;28;20044;-84
2021/10/22 09:19:46;;;;;;;5.25;0.70;;;10.30;81.40;;;;;;5107593;28;20156;-84
2021/10/22 09:22:29;;;;;;;3.83;0.57;;;10.30;81.40;;;;;;5091969;28;20620;-84
2021/10/22 09:25:07;;;;;;;3.63;0.85;;;10.30;81.40;;;;;;5096079;28;20055;-84
2021/10/22 09:27:37;;;;;;;9.00;1.13;;;10.40;81.60;;;;;;5097066;28;20040;-84
2021/10/22 09:30:09;;;;;;;6.57;1.27;;;10.40;81.60;;;;;;5113061;28;20047;-84
2021/10/22 09:32:46;;;;;;;3.15;0.68;;;10.40;82.10;;;;;;5114217;28;20055;-84
2021/10/22 09:35:31;;;;;;;4.18;0.88;;;10.40;82.40;;;;;;5114894;28;20403;-85
2021/10/22 09:38:21;;;;;;;5.00;1.05;;;10.30;82.90;;;;;;5113679;28;20043;-85
2021/10/22 09:41:08;;;;;;;5.47;1.08;;;10.30;83.50;;;;;;5113531;28;20517;-85
2021/10/22 09:43:39;;;;;;;6.63;0.88;;;10.20;84.10;;;;;;5111564;28;20413;-86
2021/10/22 09:46:17;;;;;;;7.50;0.90;;;10.00;84.60;;;;;;5110628;28;20050;-84
2021/10/22 09:48:56;;;;;;;5.35;1.05;;;9.80;85.50;;;;;;5112906;28;20047;-84
2021/10/22 09:51:35;;;;;;;8.48;1.20;;;9.80;86.10;;;;;;5095064;28;20043;-84
2021/10/22 09:54:08;;;;;;;6.97;1.40;;;9.80;86.30;;;;;;5093183;28;20502;-84
2021/10/22 09:56:41;;;;;;;17.17;3.35;;;9.80;86.40;;;;;;5114010;28;20047;-84
2021/10/22 09:59:18;;;;;;;4.75;1.38;;;9.80;86.70;;;;;;5115635;28;20043;-79
2021/10/22 10:01:46;;;;;;;5.13;1.25;;;9.80;86.80;;;;;;5094106;28;20036;-81
2021/10/22 10:04:14;;;;;;;7.07;1.08;;;9.70;87.30;;;;;;5113292;28;20039;-81
2021/10/22 10:07:02;;;;;;;6.65;1.52;;;9.70;87.30;;;;;;5115322;28;20489;-80
2021/10/22 10:09:30;;;;;;;5.78;1.00;;;9.70;87.40;;;;;;5114182;28;20509;-80
2021/10/22 10:12:02;;;;;;;3.67;0.88;;;9.70;87.70;;;;;;5113243;28;20036;-81
2021/10/22 10:14:30;;;;;;;7.93;1.30;;;9.60;87.80;;;;;;5115196;28;20051;-82
2021/10/22 10:16:58;;;;;;;12.00;1.55;;;9.70;87.90;;;;;;5115969;28;20048;-83
2021/10/22 10:19:49;;;;;;;6.38;1.10;;;9.70;88.00;;;;;;5120563;28;20058;-83
2021/10/22 10:22:19;;;;;;;6.85;1.60;;;9.70;88.20;;;;;;5099206;28;20043;-83
2021/10/22 10:24:57;;;;;;;7.35;1.25;;;9.80;88.20;;;;;;5115760;28;20039;-83
2021/10/22 10:27:25;;;;;;;4.97;1.20;;;9.90;88.10;;;;;;5113627;28;20028;-83
2021/10/22 10:29:59;;;;;;;8.60;2.05;;;9.90;88.10;;;;;;5115435;28;20505;-83
2021/10/22 10:32:30;;;;;;;6.18;1.20;;;9.90;88.10;;;;;;5110751;28;20051;-84
2021/10/22 10:35:00;;;;;;;4.47;1.20;;;10.00;88.20;;;;;;5110385;28;20035;-84
2021/10/22 10:37:36;;;;;;;5.43;1.45;;;10.10;88.40;;;;;;5095737;28;20054;-85
2021/10/22 10:40:07;;;;;;;6.22;1.35;;;10.20;88.00;;;;;;5111357;28;20046;-84
2021/10/22 10:42:43;;;;;;;6.90;1.65;;;10.30;87.90;;;;;;5112189;28;20399;-85
2021/10/22 10:45:26;;;;;;;6.35;1.08;;;10.50;87.80;;;;;;5111118;28;20438;-85
2021/10/22 10:48:04;;;;;;;7.13;1.63;;;10.60;87.20;;;;;;5093048;28;20051;-84
2021/10/22 10:50:38;;;;;;;5.70;1.60;;;10.70;86.90;;;;;;5112735;28;20035;-84
2021/10/22 10:53:34;;;;;;;7.20;1.17;;;10.80;86.30;;;;;;5112984;28;20040;-79
2021/10/22 10:56:04;;;;;;;5.15;0.93;;;10.90;85.90;;;;;;5109262;28;20043;-84
2021/10/22 10:58:45;;;;;;;7.55;1.08;;;11.00;85.70;;;;;;5113932;28;20047;-84
2021/10/22 11:01:25;;;;;;;4.93;1.35;;;11.00;85.50;;;;;;5112350;28;20474;-81
2021/10/22 11:03:57;;;;;;;;;;;11.10;85.30;;;;;;5112579;28;20051;-80
2021/10/22 11:06:43;;;;;;;9.73;1.23;;;11.20;84.80;;;;;;5113064;28;19919;-84
2021/10/22 11:09:32;;;;;;;10.00;1.45;;;11.10;84.60;;;;;;5102600;28;20050;-85
2021/10/22 11:12:04;;;;;;;8.07;1.20;;;11.20;84.20;;;;;;5105584;28;20073;-85
2021/10/22 11:14:43;;;;;;;5.15;1.10;;;11.20;84.20;;;;;;5112171;28;20494;-85
2021/10/22 11:17:13;;;;;;;11.70;1.30;;;11.30;84.30;;;;;;5112719;28;20506;-85
2021/10/22 11:19:44;;;;;;;12.35;1.40;;;11.30;83.90;;;;;;5112404;28;20493;-86
2021/10/22 11:22:18;;;;;;;8.18;1.40;;;11.30;83.80;;;;;;5104977;28;20490;-85
2021/10/22 11:24:46;;;;;;;12.77;1.52;;;11.20;84.00;;;;;;5113180;28;20063;-80
2021/10/22 11:27:22;;;;;;;7.97;1.45;;;11.20;84.00;;;;;;5111826;28;20054;-85
2021/10/22 11:29:53;;;;;;;7.95;1.27;;;11.30;84.10;;;;;;5111389;28;20426;-85
2021/10/22 11:32:27;;;;;;;;;;;11.30;83.40;;;;;;5113449;28;20063;-86
2021/10/22 11:35:01;;;;;;;7.80;1.40;;;11.30;82.80;;;;;;5107841;28;19993;-85
2021/10/22 11:37:39;;;;;;;8.73;1.30;;;11.30;82.80;;;;;;5111930;28;20054;-85
2021/10/22 11:40:14;;;;;;;8.85;1.33;;;11.30;82.80;;;;;;5111765;28;20043;-85
2021/10/22 11:42:42;;;;;;;14.25;1.52;;;11.30;82.50;;;;;;5111416;28;20052;-85
2021/10/22 11:45:13;;;;;;;7.53;1.40;;;11.30;82.10;;;;;;5110120;28;20040;-84
2021/10/22 11:47:47;;;;;;;5.03;1.30;;;11.30;82.10;;;;;;5091515;28;20059;-85
2021/10/22 11:50:29;;;;;;;8.63;1.50;;;11.20;82.40;;;;;;5106341;28;20043;-78
2021/10/22 11:53:14;;;;;;;8.02;1.30;;;11.10;82.50;;;;;;5113013;28;20058;-81
2021/10/22 11:55:53;;;;;;;9.90;1.60;;;11.00;82.30;;;;;;5111488;28;20039;-86
2021/10/22 11:58:22;;;;;;;9.27;1.70;;;11.00;82.60;;;;;;5112193;28;20050;-85
2021/10/22 12:00:52;;;;;;;16.17;1.60;;;11.10;82.60;;;;;;5111412;28;20395;-85
2021/10/22 12:03:43;;;;;;;10.23;1.90;;;11.30;83.20;;;;;;5108781;28;20048;-84
2021/10/22 12:06:28;;;;;;;12.85;1.48;;;12.00;82.90;;;;;;5111514;28;20055;-86
2021/10/22 12:08:57;;;;;;;6.60;1.35;;;12.30;81.10;;;;;;5111110;28;20722;-85
2021/10/22 12:11:25;;;;;;;5.93;0.90;;;12.30;80.90;;;;;;5108920;28;20051;-78
2021/10/22 12:13:53;;;;;;;8.45;1.00;;;12.20;79.20;;;;;;5109833;28;20044;-86
2021/10/22 12:16:26;;;;;;;4.65;1.00;;;12.00;78.80;;;;;;5112409;28;20051;-86
2021/10/22 12:18:57;;;;;;;7.35;0.98;;;11.80;79.50;;;;;;5111972;28;20054;-86
2021/10/22 12:21:29;;;;;;;7.90;1.15;;;11.60;80.10;;;;;;5110092;28;20414;-86
2021/10/22 12:23:58;;;;;;;9.80;1.52;;;11.60;80.20;;;;;;5109878;28;20056;-86
2021/10/22 12:26:29;;;;;;;6.55;1.10;;;11.50;80.50;;;;;;5109588;28;20044;-85
2021/10/22 12:29:04;;;;;;;11.07;1.42;;;11.60;80.80;;;;;;5109107;28;20422;-86
2021/10/22 12:31:39;;;;;;;9.25;1.17;;;11.70;80.70;;;;;;5109907;28;20470;-82
2021/10/22 12:34:16;;;;;;;11.73;1.00;;;11.90;80.50;;;;;;5110532;28;20052;-85
2021/10/22 12:36:45;;;;;;;4.00;0.73;;;12.00;80.10;;;;;;5108293;28;20042;-84
2021/10/22 12:39:26;;;;;;;5.43;1.10;;;12.10;79.40;;;;;;5110360;28;20075;-86
2021/10/22 12:41:54;;;;;;;5.43;0.98;;;11.80;80.10;;;;;;5110515;28;20046;-79
2021/10/22 12:44:32;;;;;;;6.20;1.27;;;11.50;81.20;;;;;;5108427;28;20410;-82
2021/10/22 12:47:00;;;;;;;10.23;1.27;;;11.30;82.00;;;;;;5108945;28;20047;-84
2021/10/22 12:49:29;;;;;;;7.63;1.20;;;11.00;83.00;;;;;;5110792;28;20047;-88
2021/10/22 12:52:03;;;;;;;5.78;1.33;;;10.90;83.60;;;;;;5110160;28;20062;-84
2021/10/22 12:54:47;;;;;;;6.82;1.20;;;10.90;84.20;;;;;;5110372;28;20039;-86
2021/10/22 12:57:23;;;;;;;12.52;1.42;;;10.90;84.50;;;;;;5109023;28;20060;-85
2021/10/22 12:59:56;;;;;;;10.85;1.38;;;10.90;84.50;;;;;;5108944;28;20056;-87
2021/10/22 13:02:30;;;;;;;5.65;1.00;;;10.90;84.60;;;;;;5108184;28;20048;-88
2021/10/22 13:05:21;;;;;;;8.63;1.20;;;11.00;84.70;;;;;;5108363;28;20047;-79
2021/10/22 13:08:17;;;;;;;11.63;1.27;;;11.30;84.80;;;;;;5103578;28;20047;-85
2021/10/22 13:10:52;;;;;;;7.10;1.02;;;11.50;84.40;;;;;;5102485;28;20047;-85
2021/10/22 13:21:50;;;;;;;4.45;0.77;;;11.80;82.20;;;;;;5129676;28;20072;-85
2021/10/22 13:24:18;;;;;;;7.50;1.00;;;11.70;82.30;;;;;;5128788;28;20038;-86